PWSweather.com
Personal Weather Stations
Station Observations
PICKERING
North Yorkshire, PickeringGB

North YorkshirePickeringGB

Lat: 54.2494, Lon: -0.7725

Elevation: 192

Station Type: Oregon Scientific WMR100

http://www.yorkshirewalker.co.uk/weather/

High Low Average
Temperature 52.0°F11.1°C 31.3°F-0.4°C 41.7°F5.4°C
Dew Point 48.2°F9.0°C 26.6°F-3.0°C 38.0°F3.3°C
Winds 11.4 mph 18.3 kmh Calm Calm 2.0 mph SSW3.2 kmh SSW
Wind Gusts 15.9 mph25.6 kmh -- 4.0 mph6.4 kmh
Humidity 90% 81% 85%
Pressure 29.50 in999.0 mb 29.15 in987.1 mb -
Precipitation 0.11 in2.8 mm - -
Hour Temp Dew Point Humidity Winds Wind Gusts Pressure Precip Precip Rate Daily Precip Total
12:00 AM 31.3°F-0.4°C 26.6°F-3.0°C 84% 0.1 mph NE0.2 kmh NE 0.9 mph1.4 kmh 29.50 in999.0 mb 0.00 in0.0 mm 0.00 in0.0 mm 0.00 in0.0 mm
12:05 AM 31.3°F-0.4°C 26.6°F-3.0°C 84% 0.1 mph NE0.2 kmh NE 0.9 mph1.4 kmh 29.47 in998.0 mb 0.00 in0.0 mm 0.00 in0.0 mm 0.00 in0.0 mm
12:10 AM 31.3°F-0.4°C 26.6°F-3.0°C 84% Calm Calm -- 29.47 in998.0 mb 0.00 in0.0 mm 0.00 in0.0 mm 0.00 in0.0 mm
12:15 AM 31.5°F-0.3°C 26.6°F-3.0°C 84% 0.1 mph NE0.2 kmh NE 1.1 mph1.8 kmh 29.47 in998.0 mb 0.00 in0.0 mm 0.00 in0.0 mm 0.00 in0.0 mm
12:20 AM 31.5°F-0.3°C 26.6°F-3.0°C 84% 0.2 mph NE0.3 kmh NE 1.1 mph1.8 kmh 29.50 in999.0 mb 0.00 in0.0 mm 0.00 in0.0 mm 0.00 in0.0 mm
12:25 AM 31.5°F-0.3°C 26.6°F-3.0°C 84% 0.1 mph NE0.2 kmh NE 1.1 mph1.8 kmh 29.50 in999.0 mb 0.00 in0.0 mm 0.00 in0.0 mm 0.00 in0.0 mm
12:30 AM 31.6°F-0.2°C 26.6°F-3.0°C 84% Calm Calm -- 29.50 in999.0 mb 0.00 in0.0 mm 0.00 in0.0 mm 0.00 in0.0 mm
12:35 AM 31.6°F-0.2°C 26.6°F-3.0°C 84% Calm Calm -- 29.50 in999.0 mb 0.00 in0.0 mm 0.00 in0.0 mm 0.00 in0.0 mm
12:40 AM 31.8°F-0.1°C 26.6°F-3.0°C 84% Calm Calm -- 29.50 in999.0 mb 0.00 in0.0 mm 0.00 in0.0 mm 0.00 in0.0 mm
12:45 AM 32.0°F0.0°C 26.6°F-3.0°C 84% Calm Calm -- 29.50 in999.0 mb 0.00 in0.0 mm 0.00 in0.0 mm 0.00 in0.0 mm
12:50 AM 32.0°F0.0°C 26.6°F-3.0°C 84% Calm Calm -- 29.47 in998.0 mb 0.00 in0.0 mm 0.00 in0.0 mm 0.00 in0.0 mm
12:55 AM 32.0°F0.0°C 26.6°F-3.0°C 84% Calm Calm -- 29.47 in998.0 mb 0.00 in0.0 mm 0.00 in0.0 mm 0.00 in0.0 mm
01:00 AM 32.0°F0.0°C 26.6°F-3.0°C 84% Calm Calm -- 29.47 in998.0 mb 0.00 in0.0 mm 0.00 in0.0 mm 0.00 in0.0 mm
01:05 AM 32.0°F0.0°C 26.6°F-3.0°C 84% 0.1 mph E0.2 kmh E 1.1 mph1.8 kmh 29.47 in998.0 mb 0.00 in0.0 mm 0.00 in0.0 mm 0.00 in0.0 mm
01:10 AM 32.0°F0.0°C 26.6°F-3.0°C 84% 0.2 mph E0.3 kmh E 2.0 mph3.2 kmh 29.47 in998.0 mb 0.00 in0.0 mm 0.00 in0.0 mm 0.00 in0.0 mm
01:15 AM 32.0°F0.0°C 26.6°F-3.0°C 84% 0.2 mph ENE0.3 kmh ENE 2.0 mph3.2 kmh 29.47 in998.0 mb 0.00 in0.0 mm 0.00 in0.0 mm 0.00 in0.0 mm
01:20 AM 32.0°F0.0°C 26.6°F-3.0°C 84% 0.1 mph WSW0.2 kmh WSW 0.9 mph1.4 kmh 29.45 in997.3 mb 0.00 in0.0 mm 0.00 in0.0 mm 0.00 in0.0 mm
01:25 AM 32.0°F0.0°C 26.6°F-3.0°C 84% Calm Calm -- 29.45 in997.3 mb 0.00 in0.0 mm 0.00 in0.0 mm 0.00 in0.0 mm
01:30 AM 32.2°F0.1°C 28.4°F-2.0°C 84% Calm Calm -- 29.45 in997.3 mb 0.00 in0.0 mm 0.00 in0.0 mm 0.00 in0.0 mm
01:35 AM 32.2°F0.1°C 28.4°F-2.0°C 84% Calm Calm -- 29.45 in997.3 mb 0.00 in0.0 mm 0.00 in0.0 mm 0.00 in0.0 mm
01:40 AM 32.2°F0.1°C 28.4°F-2.0°C 84% Calm Calm -- 29.45 in997.3 mb 0.00 in0.0 mm 0.00 in0.0 mm 0.00 in0.0 mm
01:45 AM 32.2°F0.1°C 28.4°F-2.0°C 84% Calm Calm -- 29.45 in997.3 mb 0.00 in0.0 mm 0.00 in0.0 mm 0.00 in0.0 mm
01:50 AM 32.2°F0.1°C 28.4°F-2.0°C 84% Calm Calm -- 29.45 in997.3 mb 0.00 in0.0 mm 0.00 in0.0 mm 0.00 in0.0 mm
01:55 AM 32.2°F0.1°C 28.4°F-2.0°C 84% Calm Calm -- 29.45 in997.3 mb 0.00 in0.0 mm 0.00 in0.0 mm 0.00 in0.0 mm
02:00 AM 32.4°F0.2°C 28.4°F-2.0°C 84% Calm Calm -- 29.45 in997.3 mb 0.00 in0.0 mm 0.00 in0.0 mm 0.00 in0.0 mm
02:05 AM 32.4°F0.2°C 28.4°F-2.0°C 84% Calm Calm -- 29.45 in997.3 mb 0.00 in0.0 mm 0.00 in0.0 mm 0.00 in0.0 mm
02:10 AM 32.4°F0.2°C 28.4°F-2.0°C 84% Calm Calm -- 29.45 in997.3 mb 0.00 in0.0 mm 0.00 in0.0 mm 0.00 in0.0 mm
02:15 AM 32.5°F0.3°C 30.2°F-1.0°C 85% Calm Calm -- 29.45 in997.3 mb 0.00 in0.0 mm 0.00 in0.0 mm 0.00 in0.0 mm
02:20 AM 32.5°F0.3°C 30.2°F-1.0°C 85% Calm Calm -- 29.45 in997.3 mb 0.00 in0.0 mm 0.00 in0.0 mm 0.00 in0.0 mm
02:25 AM 32.7°F0.4°C 30.2°F-1.0°C 85% Calm Calm -- 29.45 in997.3 mb 0.00 in0.0 mm 0.00 in0.0 mm 0.00 in0.0 mm
02:30 AM 32.7°F0.4°C 30.2°F-1.0°C 85% Calm Calm -- 29.45 in997.3 mb 0.00 in0.0 mm 0.00 in0.0 mm 0.00 in0.0 mm
02:35 AM 32.5°F0.3°C 30.2°F-1.0°C 85% Calm Calm -- 29.45 in997.3 mb 0.00 in0.0 mm 0.00 in0.0 mm 0.00 in0.0 mm
02:40 AM 32.5°F0.3°C 30.2°F-1.0°C 85% Calm Calm -- 29.45 in997.3 mb 0.00 in0.0 mm 0.00 in0.0 mm 0.00 in0.0 mm
02:45 AM 32.7°F0.4°C 30.2°F-1.0°C 85% Calm Calm -- 29.45 in997.3 mb 0.00 in0.0 mm 0.00 in0.0 mm 0.00 in0.0 mm
02:50 AM 32.7°F0.4°C 30.2°F-1.0°C 85% Calm Calm -- 29.45 in997.3 mb 0.00 in0.0 mm 0.00 in0.0 mm 0.00 in0.0 mm
02:55 AM 32.7°F0.4°C 30.2°F-1.0°C 85% Calm Calm -- 29.45 in997.3 mb 0.00 in0.0 mm 0.00 in0.0 mm 0.00 in0.0 mm
03:00 AM 32.7°F0.4°C 30.2°F-1.0°C 85% Calm Calm -- 29.45 in997.3 mb 0.00 in0.0 mm 0.00 in0.0 mm 0.00 in0.0 mm
03:05 AM 32.7°F0.4°C 30.2°F-1.0°C 85% Calm Calm -- 29.41 in995.9 mb 0.00 in0.0 mm 0.00 in0.0 mm 0.00 in0.0 mm
03:10 AM 32.9°F0.5°C 30.2°F-1.0°C 85% Calm Calm -- 29.41 in995.9 mb 0.00 in0.0 mm 0.00 in0.0 mm 0.00 in0.0 mm
03:15 AM 32.9°F0.5°C 30.2°F-1.0°C 85% Calm Calm -- 29.41 in995.9 mb 0.00 in0.0 mm 0.00 in0.0 mm 0.00 in0.0 mm
03:20 AM 32.9°F0.5°C 30.2°F-1.0°C 85% Calm Calm -- 29.41 in995.9 mb 0.00 in0.0 mm 0.00 in0.0 mm 0.00 in0.0 mm
03:25 AM 32.9°F0.5°C 30.2°F-1.0°C 85% Calm Calm -- 29.41 in995.9 mb 0.00 in0.0 mm 0.00 in0.0 mm 0.00 in0.0 mm
03:30 AM 32.9°F0.5°C 30.2°F-1.0°C 85% Calm Calm -- 29.41 in995.9 mb 0.00 in0.0 mm 0.00 in0.0 mm 0.00 in0.0 mm
03:35 AM 32.9°F0.5°C 30.2°F-1.0°C 85% Calm Calm -- 29.41 in995.9 mb 0.00 in0.0 mm 0.00 in0.0 mm 0.00 in0.0 mm
03:40 AM 32.9°F0.5°C 30.2°F-1.0°C 85% Calm Calm -- 29.41 in995.9 mb 0.00 in0.0 mm 0.00 in0.0 mm 0.00 in0.0 mm
03:45 AM 32.9°F0.5°C 30.2°F-1.0°C 85% Calm Calm -- 29.41 in995.9 mb 0.00 in0.0 mm 0.00 in0.0 mm 0.00 in0.0 mm
03:50 AM 32.9°F0.5°C 30.2°F-1.0°C 85% Calm Calm -- 29.41 in995.9 mb 0.06 in1.5 mm 0.72 in18.3 mm 0.06 in1.5 mm
03:55 AM 32.9°F0.5°C 30.2°F-1.0°C 85% Calm Calm -- 29.41 in995.9 mb 0.06 in1.5 mm 0.00 in0.0 mm 0.06 in1.5 mm
04:00 AM 32.9°F0.5°C 30.2°F-1.0°C 85% Calm Calm -- 29.41 in995.9 mb 0.06 in1.5 mm 0.00 in0.0 mm 0.06 in1.5 mm
04:05 AM 33.1°F0.6°C 30.2°F-1.0°C 85% Calm Calm -- 29.41 in995.9 mb 0.06 in1.5 mm 0.00 in0.0 mm 0.06 in1.5 mm
04:10 AM 33.1°F0.6°C 30.2°F-1.0°C 85% Calm Calm -- 29.41 in995.9 mb 0.06 in1.5 mm 0.00 in0.0 mm 0.06 in1.5 mm
04:15 AM 33.1°F0.6°C 30.2°F-1.0°C 85% Calm Calm -- 29.41 in995.9 mb 0.06 in1.5 mm 0.00 in0.0 mm 0.06 in1.5 mm
04:20 AM 33.1°F0.6°C 30.2°F-1.0°C 85% Calm Calm -- 29.41 in995.9 mb 0.06 in1.5 mm 0.00 in0.0 mm 0.06 in1.5 mm
04:25 AM 33.1°F0.6°C 30.2°F-1.0°C 85% 0.1 mph NNW0.2 kmh NNW 0.9 mph1.4 kmh 29.41 in995.9 mb 0.06 in1.5 mm 0.00 in0.0 mm 0.06 in1.5 mm
04:30 AM 33.1°F0.6°C 30.2°F-1.0°C 85% 0.1 mph NNW0.2 kmh NNW 0.9 mph1.4 kmh 29.41 in995.9 mb 0.06 in1.5 mm 0.00 in0.0 mm 0.06 in1.5 mm
04:35 AM 33.1°F0.6°C 30.2°F-1.0°C 85% 0.1 mph NNW0.2 kmh NNW 0.9 mph1.4 kmh 29.41 in995.9 mb 0.06 in1.5 mm 0.00 in0.0 mm 0.06 in1.5 mm
04:40 AM 33.1°F0.6°C 30.2°F-1.0°C 85% Calm Calm -- 29.41 in995.9 mb 0.06 in1.5 mm 0.00 in0.0 mm 0.06 in1.5 mm
04:45 AM 33.1°F0.6°C 30.2°F-1.0°C 85% 0.1 mph NNW0.2 kmh NNW 0.9 mph1.4 kmh 29.41 in995.9 mb 0.06 in1.5 mm 0.00 in0.0 mm 0.06 in1.5 mm
04:50 AM 33.3°F0.7°C 30.2°F-1.0°C 85% 0.2 mph NNW0.3 kmh NNW 0.9 mph1.4 kmh 29.39 in995.3 mb 0.00 in0.0 mm 0.00 in0.0 mm 0.06 in1.5 mm
04:55 AM 33.3°F0.7°C 30.2°F-1.0°C 85% 0.1 mph NW0.2 kmh NW 0.9 mph1.4 kmh 29.39 in995.3 mb 0.00 in0.0 mm 0.00 in0.0 mm 0.06 in1.5 mm
05:00 AM 33.3°F0.7°C 30.2°F-1.0°C 85% Calm Calm -- 29.39 in995.3 mb 0.00 in0.0 mm 0.00 in0.0 mm 0.06 in1.5 mm
05:05 AM 33.4°F0.8°C 30.2°F-1.0°C 85% 0.1 mph W0.2 kmh W 0.9 mph1.4 kmh 29.39 in995.3 mb 0.00 in0.0 mm 0.00 in0.0 mm 0.06 in1.5 mm
05:10 AM 33.4°F0.8°C 30.2°F-1.0°C 85% 0.2 mph W0.3 kmh W 0.9 mph1.4 kmh 29.39 in995.3 mb 0.00 in0.0 mm 0.00 in0.0 mm 0.06 in1.5 mm
05:15 AM 33.6°F0.9°C 30.2°F-1.0°C 85% 0.4 mph W0.6 kmh W 1.1 mph1.8 kmh 29.39 in995.3 mb 0.00 in0.0 mm 0.00 in0.0 mm 0.06 in1.5 mm
05:20 AM 33.6°F0.9°C 30.2°F-1.0°C 85% 0.4 mph W0.6 kmh W 1.1 mph1.8 kmh 29.39 in995.3 mb 0.00 in0.0 mm 0.00 in0.0 mm 0.06 in1.5 mm
05:25 AM 33.6°F0.9°C 30.2°F-1.0°C 85% 0.4 mph WNW0.6 kmh WNW 1.3 mph2.1 kmh 29.39 in995.3 mb 0.00 in0.0 mm 0.00 in0.0 mm 0.06 in1.5 mm
05:30 AM 33.8°F1.0°C 30.2°F-1.0°C 86% 0.7 mph WNW1.1 kmh WNW 1.3 mph2.1 kmh 29.39 in995.3 mb 0.00 in0.0 mm 0.00 in0.0 mm 0.06 in1.5 mm
05:35 AM 33.8°F1.0°C 30.2°F-1.0°C 86% 1.1 mph W1.8 kmh W 1.6 mph2.6 kmh 29.39 in995.3 mb 0.00 in0.0 mm 0.00 in0.0 mm 0.06 in1.5 mm
05:40 AM 34.0°F1.1°C 30.2°F-1.0°C 86% 0.8 mph WNW1.3 kmh WNW 1.6 mph2.6 kmh 29.39 in995.3 mb 0.00 in0.0 mm 0.00 in0.0 mm 0.06 in1.5 mm
05:45 AM 34.0°F1.1°C 30.2°F-1.0°C 86% 0.5 mph WNW0.8 kmh WNW 1.6 mph2.6 kmh 29.39 in995.3 mb 0.00 in0.0 mm 0.00 in0.0 mm 0.06 in1.5 mm
05:50 AM 34.0°F1.1°C 30.2°F-1.0°C 86% 0.9 mph WSW1.4 kmh WSW 2.2 mph3.5 kmh 29.39 in995.3 mb 0.00 in0.0 mm 0.00 in0.0 mm 0.06 in1.5 mm
05:55 AM 34.2°F1.2°C 30.2°F-1.0°C 86% 1.3 mph WSW2.1 kmh WSW 2.7 mph4.3 kmh 29.39 in995.3 mb 0.00 in0.0 mm 0.00 in0.0 mm 0.06 in1.5 mm
06:00 AM 34.2°F1.2°C 30.2°F-1.0°C 86% 1.3 mph WSW2.1 kmh WSW 2.7 mph4.3 kmh 29.39 in995.3 mb 0.00 in0.0 mm 0.00 in0.0 mm 0.06 in1.5 mm
06:05 AM 34.2°F1.2°C 30.2°F-1.0°C 86% 0.7 mph W1.1 kmh W 2.0 mph3.2 kmh 29.39 in995.3 mb 0.00 in0.0 mm 0.00 in0.0 mm 0.06 in1.5 mm
06:10 AM 34.2°F1.2°C 30.2°F-1.0°C 86% 0.1 mph W0.2 kmh W 0.9 mph1.4 kmh 29.39 in995.3 mb 0.00 in0.0 mm 0.00 in0.0 mm 0.06 in1.5 mm
06:15 AM 34.2°F1.2°C 30.2°F-1.0°C 86% 0.1 mph WNW0.2 kmh WNW 0.9 mph1.4 kmh 29.39 in995.3 mb 0.00 in0.0 mm 0.00 in0.0 mm 0.06 in1.5 mm
06:20 AM 34.2°F1.2°C 30.2°F-1.0°C 86% 0.1 mph WNW0.2 kmh WNW 0.9 mph1.4 kmh 29.39 in995.3 mb 0.00 in0.0 mm 0.00 in0.0 mm 0.06 in1.5 mm
06:25 AM 34.2°F1.2°C 30.2°F-1.0°C 86% Calm Calm -- 29.39 in995.3 mb 0.00 in0.0 mm 0.00 in0.0 mm 0.06 in1.5 mm
06:30 AM 34.2°F1.2°C 30.2°F-1.0°C 86% 0.5 mph WSW0.8 kmh WSW 1.6 mph2.6 kmh 29.39 in995.3 mb 0.00 in0.0 mm 0.00 in0.0 mm 0.06 in1.5 mm
06:35 AM 34.2°F1.2°C 30.2°F-1.0°C 86% 1.0 mph WSW1.6 kmh WSW 2.0 mph3.2 kmh 29.39 in995.3 mb 0.00 in0.0 mm 0.00 in0.0 mm 0.06 in1.5 mm
06:40 AM 34.2°F1.2°C 30.2°F-1.0°C 86% 0.9 mph WSW1.4 kmh WSW 2.0 mph3.2 kmh 29.39 in995.3 mb 0.00 in0.0 mm 0.00 in0.0 mm 0.06 in1.5 mm
06:45 AM 34.2°F1.2°C 30.2°F-1.0°C 86% 0.3 mph W0.5 kmh W 1.1 mph1.8 kmh 29.39 in995.3 mb 0.00 in0.0 mm 0.00 in0.0 mm 0.06 in1.5 mm
06:50 AM 34.2°F1.2°C 30.2°F-1.0°C 86% 0.1 mph WNW0.2 kmh WNW 1.1 mph1.8 kmh 29.39 in995.3 mb 0.00 in0.0 mm 0.00 in0.0 mm 0.06 in1.5 mm
06:55 AM 34.2°F1.2°C 30.2°F-1.0°C 86% 0.2 mph NW0.3 kmh NW 1.1 mph1.8 kmh 29.39 in995.3 mb 0.00 in0.0 mm 0.00 in0.0 mm 0.06 in1.5 mm
07:00 AM 34.2°F1.2°C 30.2°F-1.0°C 86% 0.2 mph NW0.3 kmh NW 1.1 mph1.8 kmh 29.39 in995.3 mb 0.00 in0.0 mm 0.00 in0.0 mm 0.06 in1.5 mm
07:05 AM 34.2°F1.2°C 30.2°F-1.0°C 86% Calm Calm 0.9 mph1.4 kmh 29.36 in994.2 mb 0.00 in0.0 mm 0.00 in0.0 mm 0.06 in1.5 mm
07:10 AM 34.2°F1.2°C 30.2°F-1.0°C 86% 0.4 mph W0.6 kmh W 0.9 mph1.4 kmh 29.36 in994.2 mb 0.06 in1.5 mm 0.72 in18.3 mm 0.11 in2.8 mm
07:15 AM 34.2°F1.2°C 30.2°F-1.0°C 86% 0.6 mph W1.0 kmh W 1.1 mph1.8 kmh 29.36 in994.2 mb 0.06 in1.5 mm 0.00 in0.0 mm 0.11 in2.8 mm
07:20 AM 34.3°F1.3°C 30.2°F-1.0°C 86% 0.6 mph WNW1.0 kmh WNW 1.6 mph2.6 kmh 29.39 in995.3 mb 0.06 in1.5 mm 0.00 in0.0 mm 0.11 in2.8 mm
07:25 AM 34.5°F1.4°C 30.2°F-1.0°C 86% 1.1 mph W1.8 kmh W 2.7 mph4.3 kmh 29.39 in995.3 mb 0.06 in1.5 mm 0.00 in0.0 mm 0.11 in2.8 mm
07:30 AM 34.5°F1.4°C 32.0°F0.0°C 87% 1.4 mph W2.3 kmh W 2.7 mph4.3 kmh 29.39 in995.3 mb 0.06 in1.5 mm 0.00 in0.0 mm 0.11 in2.8 mm
07:35 AM 34.7°F1.5°C 32.0°F0.0°C 87% 1.0 mph W1.6 kmh W 2.2 mph3.5 kmh 29.39 in995.3 mb 0.06 in1.5 mm 0.00 in0.0 mm 0.11 in2.8 mm
07:40 AM 34.7°F1.5°C 32.0°F0.0°C 87% 1.0 mph WNW1.6 kmh WNW 2.0 mph3.2 kmh 29.39 in995.3 mb 0.06 in1.5 mm 0.00 in0.0 mm 0.11 in2.8 mm
07:45 AM 34.7°F1.5°C 32.0°F0.0°C 87% 1.2 mph WNW1.9 kmh WNW 2.5 mph4.0 kmh 29.39 in995.3 mb 0.06 in1.5 mm 0.00 in0.0 mm 0.11 in2.8 mm
07:50 AM 34.9°F1.6°C 32.0°F0.0°C 87% 1.3 mph WNW2.1 kmh WNW 2.5 mph4.0 kmh 29.39 in995.3 mb 0.06 in1.5 mm 0.00 in0.0 mm 0.11 in2.8 mm
07:55 AM 35.1°F1.7°C 32.0°F0.0°C 87% 0.8 mph WNW1.3 kmh WNW 2.2 mph3.5 kmh 29.39 in995.3 mb 0.06 in1.5 mm 0.00 in0.0 mm 0.11 in2.8 mm
08:00 AM 35.1°F1.7°C 32.0°F0.0°C 87% 0.8 mph W1.3 kmh W 2.2 mph3.5 kmh 29.39 in995.3 mb 0.06 in1.5 mm 0.00 in0.0 mm 0.11 in2.8 mm
08:05 AM 35.2°F1.8°C 32.0°F0.0°C 87% 1.6 mph WSW2.6 kmh WSW 2.9 mph4.7 kmh 29.39 in995.3 mb 0.06 in1.5 mm 0.00 in0.0 mm 0.11 in2.8 mm
08:10 AM 35.4°F1.9°C 32.0°F0.0°C 87% 2.0 mph WSW3.2 kmh WSW 2.9 mph4.7 kmh 29.39 in995.3 mb 0.00 in0.0 mm 0.00 in0.0 mm 0.11 in2.8 mm
08:15 AM 35.6°F2.0°C 33.8°F1.0°C 87% 2.0 mph WSW3.2 kmh WSW 2.9 mph4.7 kmh 29.39 in995.3 mb 0.00 in0.0 mm 0.00 in0.0 mm 0.11 in2.8 mm
08:20 AM 35.6°F2.0°C 33.8°F1.0°C 87% 1.7 mph WSW2.7 kmh WSW 2.7 mph4.3 kmh 29.39 in995.3 mb 0.00 in0.0 mm 0.00 in0.0 mm 0.11 in2.8 mm
08:25 AM 35.6°F2.0°C 33.8°F1.0°C 87% 1.4 mph WSW2.3 kmh WSW 3.1 mph5.0 kmh 29.39 in995.3 mb 0.00 in0.0 mm 0.00 in0.0 mm 0.11 in2.8 mm
08:30 AM 35.6°F2.0°C 33.8°F1.0°C 87% 2.0 mph WSW3.2 kmh WSW 3.4 mph5.5 kmh 29.39 in995.3 mb 0.00 in0.0 mm 0.00 in0.0 mm 0.11 in2.8 mm
08:35 AM 35.6°F2.0°C 33.8°F1.0°C 87% 2.2 mph WSW3.5 kmh WSW 3.4 mph5.5 kmh 29.39 in995.3 mb 0.00 in0.0 mm 0.00 in0.0 mm 0.11 in2.8 mm
08:40 AM 35.6°F2.0°C 33.8°F1.0°C 87% 2.4 mph WSW3.9 kmh WSW 3.4 mph5.5 kmh 29.39 in995.3 mb 0.00 in0.0 mm 0.00 in0.0 mm 0.11 in2.8 mm
08:45 AM 35.6°F2.0°C 33.8°F1.0°C 87% 1.6 mph WSW2.6 kmh WSW 2.9 mph4.7 kmh 29.39 in995.3 mb 0.00 in0.0 mm 0.00 in0.0 mm 0.11 in2.8 mm
08:50 AM 35.6°F2.0°C 33.8°F1.0°C 87% 0.7 mph W1.1 kmh W 2.0 mph3.2 kmh 29.39 in995.3 mb 0.00 in0.0 mm 0.00 in0.0 mm 0.11 in2.8 mm
08:55 AM 35.6°F2.0°C 33.8°F1.0°C 87% 0.5 mph WNW0.8 kmh WNW 2.0 mph3.2 kmh 29.39 in995.3 mb 0.00 in0.0 mm 0.00 in0.0 mm 0.11 in2.8 mm
09:00 AM 35.6°F2.0°C 33.8°F1.0°C 87% 0.9 mph W1.4 kmh W 2.2 mph3.5 kmh 29.39 in995.3 mb 0.00 in0.0 mm 0.00 in0.0 mm 0.11 in2.8 mm
09:05 AM 35.8°F2.1°C 33.8°F1.0°C 87% 0.6 mph WNW1.0 kmh WNW 2.2 mph3.5 kmh 29.36 in994.2 mb 0.00 in0.0 mm 0.00 in0.0 mm 0.11 in2.8 mm
09:10 AM 35.8°F2.1°C 33.8°F1.0°C 87% 0.5 mph NE0.8 kmh NE 2.7 mph4.3 kmh 29.36 in994.2 mb 0.00 in0.0 mm 0.00 in0.0 mm 0.11 in2.8 mm
09:15 AM 35.8°F2.1°C 33.8°F1.0°C 87% 0.8 mph NE1.3 kmh NE 2.7 mph4.3 kmh 29.36 in994.2 mb 0.00 in0.0 mm 0.00 in0.0 mm 0.11 in2.8 mm
09:20 AM 35.6°F2.0°C 33.8°F1.0°C 87% 0.5 mph NE0.8 kmh NE 2.5 mph4.0 kmh 29.39 in995.3 mb 0.00 in0.0 mm 0.00 in0.0 mm 0.11 in2.8 mm
09:25 AM 35.6°F2.0°C 33.8°F1.0°C 87% 0.1 mph NW0.2 kmh NW 0.9 mph1.4 kmh 29.39 in995.3 mb 0.00 in0.0 mm 0.00 in0.0 mm 0.11 in2.8 mm
09:30 AM 36.0°F2.2°C 33.8°F1.0°C 87% 0.4 mph W0.6 kmh W 1.1 mph1.8 kmh 29.39 in995.3 mb 0.00 in0.0 mm 0.00 in0.0 mm 0.11 in2.8 mm
09:35 AM 36.3°F2.4°C 33.8°F1.0°C 87% 0.3 mph W0.5 kmh W 1.1 mph1.8 kmh 29.15 in987.1 mb 0.00 in0.0 mm 0.00 in0.0 mm 0.11 in2.8 mm
09:40 AM 36.3°F2.4°C 33.8°F1.0°C 88% 0.3 mph WNW0.5 kmh WNW 1.1 mph1.8 kmh 29.15 in987.1 mb 0.00 in0.0 mm 0.00 in0.0 mm 0.11 in2.8 mm
09:45 AM 36.3°F2.4°C 33.8°F1.0°C 88% 0.3 mph W0.5 kmh W 1.1 mph1.8 kmh 29.15 in987.1 mb 0.00 in0.0 mm 0.00 in0.0 mm 0.11 in2.8 mm
09:50 AM 36.3°F2.4°C 33.8°F1.0°C 88% 0.3 mph NW0.5 kmh NW 1.1 mph1.8 kmh 29.39 in995.3 mb 0.00 in0.0 mm 0.00 in0.0 mm 0.11 in2.8 mm
09:55 AM 36.5°F2.5°C 33.8°F1.0°C 88% 0.5 mph N0.8 kmh N 1.3 mph2.1 kmh 29.39 in995.3 mb 0.00 in0.0 mm 0.00 in0.0 mm 0.11 in2.8 mm
10:00 AM 36.7°F2.6°C 33.8°F1.0°C 88% 0.5 mph N0.8 kmh N 1.3 mph2.1 kmh 29.39 in995.3 mb 0.00 in0.0 mm 0.00 in0.0 mm 0.11 in2.8 mm
10:05 AM 37.2°F2.9°C 33.8°F1.0°C 88% 0.7 mph N1.1 kmh N 2.0 mph3.2 kmh 29.39 in995.3 mb 0.00 in0.0 mm 0.00 in0.0 mm 0.11 in2.8 mm
10:10 AM 37.8°F3.2°C 35.6°F2.0°C 88% 0.9 mph NW1.4 kmh NW 2.2 mph3.5 kmh 29.39 in995.3 mb 0.00 in0.0 mm 0.00 in0.0 mm 0.11 in2.8 mm
10:15 AM 38.7°F3.7°C 35.6°F2.0°C 88% 1.7 mph WNW2.7 kmh WNW 4.7 mph7.6 kmh 29.39 in995.3 mb 0.00 in0.0 mm 0.00 in0.0 mm 0.11 in2.8 mm
10:20 AM 38.8°F3.8°C 35.6°F2.0°C 88% 1.7 mph W2.7 kmh W 4.7 mph7.6 kmh 29.36 in994.2 mb 0.00 in0.0 mm 0.00 in0.0 mm 0.11 in2.8 mm
10:25 AM 39.0°F3.9°C 35.6°F2.0°C 88% 1.8 mph WSW2.9 kmh WSW 3.6 mph5.8 kmh 29.36 in994.2 mb 0.00 in0.0 mm 0.00 in0.0 mm 0.11 in2.8 mm
10:30 AM 39.2°F4.0°C 35.6°F2.0°C 88% 2.0 mph WSW3.2 kmh WSW 3.6 mph5.8 kmh 29.36 in994.2 mb 0.00 in0.0 mm 0.00 in0.0 mm 0.11 in2.8 mm
10:35 AM 39.4°F4.1°C 37.4°F3.0°C 89% 1.5 mph WSW2.4 kmh WSW 3.1 mph5.0 kmh 29.36 in994.2 mb 0.00 in0.0 mm 0.00 in0.0 mm 0.11 in2.8 mm
10:40 AM 39.6°F4.2°C 37.4°F3.0°C 89% 2.0 mph WSW3.2 kmh WSW 3.1 mph5.0 kmh 29.36 in994.2 mb 0.00 in0.0 mm 0.00 in0.0 mm 0.11 in2.8 mm
10:45 AM 40.1°F4.5°C 37.4°F3.0°C 89% 2.3 mph WSW3.7 kmh WSW 3.8 mph6.1 kmh 29.36 in994.2 mb 0.00 in0.0 mm 0.00 in0.0 mm 0.11 in2.8 mm
10:50 AM 40.5°F4.7°C 37.4°F3.0°C 89% 1.7 mph WSW2.7 kmh WSW 3.8 mph6.1 kmh 29.36 in994.2 mb 0.00 in0.0 mm 0.00 in0.0 mm 0.11 in2.8 mm
10:55 AM 40.8°F4.9°C 37.4°F3.0°C 89% 1.0 mph WNW1.6 kmh WNW 2.5 mph4.0 kmh 29.36 in994.2 mb 0.00 in0.0 mm 0.00 in0.0 mm 0.11 in2.8 mm
11:00 AM 41.4°F5.2°C 39.2°F4.0°C 89% 0.6 mph NW1.0 kmh NW 1.3 mph2.1 kmh 29.36 in994.2 mb 0.00 in0.0 mm 0.00 in0.0 mm 0.11 in2.8 mm
11:05 AM 42.3°F5.7°C 39.2°F4.0°C 89% 0.8 mph W1.3 kmh W 2.5 mph4.0 kmh 29.36 in994.2 mb 0.00 in0.0 mm 0.00 in0.0 mm 0.11 in2.8 mm
11:10 AM 42.4°F5.8°C 41.0°F5.0°C 90% 1.2 mph WSW1.9 kmh WSW 3.4 mph5.5 kmh 29.36 in994.2 mb 0.00 in0.0 mm 0.00 in0.0 mm 0.11 in2.8 mm
11:15 AM 43.0°F6.1°C 41.0°F5.0°C 90% 2.2 mph WSW3.5 kmh WSW 4.0 mph6.4 kmh 29.36 in994.2 mb 0.00 in0.0 mm 0.00 in0.0 mm 0.11 in2.8 mm
11:20 AM 43.5°F6.4°C 41.0°F5.0°C 90% 3.3 mph WSW5.3 kmh WSW 4.9 mph7.9 kmh 29.30 in992.2 mb 0.00 in0.0 mm 0.00 in0.0 mm 0.11 in2.8 mm
11:25 AM 44.1°F6.7°C 41.0°F5.0°C 90% 3.3 mph WSW5.3 kmh WSW 4.9 mph7.9 kmh 29.30 in992.2 mb 0.00 in0.0 mm 0.00 in0.0 mm 0.11 in2.8 mm
11:30 AM 44.8°F7.1°C 42.8°F6.0°C 90% 2.8 mph WSW4.5 kmh WSW 4.3 mph6.9 kmh 29.30 in992.2 mb 0.00 in0.0 mm 0.00 in0.0 mm 0.11 in2.8 mm
11:35 AM 45.5°F7.5°C 42.8°F6.0°C 90% 2.4 mph WSW3.9 kmh WSW 5.4 mph8.7 kmh 29.36 in994.2 mb 0.00 in0.0 mm 0.00 in0.0 mm 0.11 in2.8 mm
11:40 AM 45.9°F7.7°C 42.8°F6.0°C 90% 3.4 mph WSW5.5 kmh WSW 7.6 mph12.2 kmh 29.36 in994.2 mb 0.00 in0.0 mm 0.00 in0.0 mm 0.11 in2.8 mm
11:45 AM 46.2°F7.9°C 42.8°F6.0°C 89% 3.7 mph WSW6.0 kmh WSW 7.6 mph12.2 kmh 29.36 in994.2 mb 0.00 in0.0 mm 0.00 in0.0 mm 0.11 in2.8 mm
11:50 AM 46.4°F8.0°C 44.6°F7.0°C 89% 3.5 mph WSW5.6 kmh WSW 4.9 mph7.9 kmh 29.36 in994.2 mb 0.00 in0.0 mm 0.00 in0.0 mm 0.11 in2.8 mm
11:55 AM 46.8°F8.2°C 44.6°F7.0°C 89% 3.5 mph WSW5.6 kmh WSW 6.3 mph10.1 kmh 29.36 in994.2 mb 0.00 in0.0 mm 0.00 in0.0 mm 0.11 in2.8 mm
12:00 PM 46.8°F8.2°C 44.6°F7.0°C 89% 3.2 mph WSW5.1 kmh WSW 6.3 mph10.1 kmh 29.36 in994.2 mb 0.00 in0.0 mm 0.00 in0.0 mm 0.11 in2.8 mm
12:05 PM 46.9°F8.3°C 44.6°F7.0°C 89% 3.3 mph WSW5.3 kmh WSW 5.8 mph9.3 kmh 29.36 in994.2 mb 0.00 in0.0 mm 0.00 in0.0 mm 0.11 in2.8 mm
12:10 PM 47.1°F8.4°C 44.6°F7.0°C 89% 3.4 mph WSW5.5 kmh WSW 5.6 mph9.0 kmh 29.36 in994.2 mb 0.00 in0.0 mm 0.00 in0.0 mm 0.11 in2.8 mm
12:15 PM 47.5°F8.6°C 44.6°F7.0°C 89% 3.4 mph WSW5.5 kmh WSW 5.4 mph8.7 kmh 29.36 in994.2 mb 0.00 in0.0 mm 0.00 in0.0 mm 0.11 in2.8 mm
12:20 PM 47.8°F8.8°C 46.4°F8.0°C 89% 2.6 mph WSW4.2 kmh WSW 4.3 mph6.9 kmh 29.36 in994.2 mb 0.00 in0.0 mm 0.00 in0.0 mm 0.11 in2.8 mm
12:25 PM 47.8°F8.8°C 44.6°F7.0°C 88% 1.7 mph WSW2.7 kmh WSW 2.9 mph4.7 kmh 29.36 in994.2 mb 0.00 in0.0 mm 0.00 in0.0 mm 0.11 in2.8 mm
12:30 PM 47.8°F8.8°C 44.6°F7.0°C 88% 1.5 mph WSW2.4 kmh WSW 3.4 mph5.5 kmh 29.36 in994.2 mb 0.00 in0.0 mm 0.00 in0.0 mm 0.11 in2.8 mm
12:35 PM 47.8°F8.8°C 46.4°F8.0°C 89% 1.1 mph WSW1.8 kmh WSW 3.4 mph5.5 kmh 29.36 in994.2 mb 0.00 in0.0 mm 0.00 in0.0 mm 0.11 in2.8 mm
12:40 PM 48.0°F8.9°C 46.4°F8.0°C 89% 0.5 mph NNW0.8 kmh NNW 1.3 mph2.1 kmh 29.36 in994.2 mb 0.00 in0.0 mm 0.00 in0.0 mm 0.11 in2.8 mm
12:45 PM 47.8°F8.8°C 46.4°F8.0°C 89% 0.6 mph N1.0 kmh N 1.3 mph2.1 kmh 29.36 in994.2 mb 0.00 in0.0 mm 0.00 in0.0 mm 0.11 in2.8 mm
12:50 PM 47.8°F8.8°C 46.4°F8.0°C 89% 0.6 mph NW1.0 kmh NW 1.1 mph1.8 kmh 29.36 in994.2 mb 0.00 in0.0 mm 0.00 in0.0 mm 0.11 in2.8 mm
12:55 PM 47.8°F8.8°C 46.4°F8.0°C 89% 0.6 mph W1.0 kmh W 1.1 mph1.8 kmh 29.36 in994.2 mb 0.00 in0.0 mm 0.00 in0.0 mm 0.11 in2.8 mm
01:00 PM 48.2°F9.0°C 46.4°F8.0°C 89% 0.7 mph WSW1.1 kmh WSW 1.3 mph2.1 kmh 29.36 in994.2 mb 0.00 in0.0 mm 0.00 in0.0 mm 0.11 in2.8 mm
01:05 PM 48.4°F9.1°C 46.4°F8.0°C 89% 0.6 mph W1.0 kmh W 2.0 mph3.2 kmh 29.36 in994.2 mb 0.00 in0.0 mm 0.00 in0.0 mm 0.11 in2.8 mm
01:10 PM 48.6°F9.2°C 46.4°F8.0°C 88% 0.6 mph WSW1.0 kmh WSW 2.0 mph3.2 kmh 29.36 in994.2 mb 0.00 in0.0 mm 0.00 in0.0 mm 0.11 in2.8 mm
01:15 PM 48.6°F9.2°C 46.4°F8.0°C 88% 0.8 mph SW1.3 kmh SW 2.0 mph3.2 kmh 29.36 in994.2 mb 0.00 in0.0 mm 0.00 in0.0 mm 0.11 in2.8 mm
01:20 PM 48.7°F9.3°C 46.4°F8.0°C 88% 2.2 mph WSW3.5 kmh WSW 5.8 mph9.3 kmh 29.36 in994.2 mb 0.00 in0.0 mm 0.00 in0.0 mm 0.11 in2.8 mm
01:25 PM 49.1°F9.5°C 46.4°F8.0°C 88% 3.3 mph WSW5.3 kmh WSW 5.8 mph9.3 kmh 29.36 in994.2 mb 0.00 in0.0 mm 0.00 in0.0 mm 0.11 in2.8 mm
01:30 PM 49.6°F9.8°C 46.4°F8.0°C 88% 4.8 mph WSW7.7 kmh WSW 7.2 mph11.6 kmh 29.36 in994.2 mb 0.00 in0.0 mm 0.00 in0.0 mm 0.11 in2.8 mm
01:35 PM 49.8°F9.9°C 46.4°F8.0°C 88% 5.5 mph WSW8.9 kmh WSW 7.4 mph11.9 kmh 29.36 in994.2 mb 0.00 in0.0 mm 0.00 in0.0 mm 0.11 in2.8 mm
01:40 PM 50.0°F10.0°C 46.4°F8.0°C 87% 5.3 mph WSW8.5 kmh WSW 8.5 mph13.7 kmh 29.36 in994.2 mb 0.00 in0.0 mm 0.00 in0.0 mm 0.11 in2.8 mm
01:45 PM 50.4°F10.2°C 48.2°F9.0°C 87% 5.9 mph WSW9.5 kmh WSW 9.6 mph15.4 kmh 29.36 in994.2 mb 0.00 in0.0 mm 0.00 in0.0 mm 0.11 in2.8 mm
01:50 PM 50.9°F10.5°C 48.2°F9.0°C 87% 6.4 mph W10.3 kmh W 9.6 mph15.4 kmh 29.36 in994.2 mb 0.00 in0.0 mm 0.00 in0.0 mm 0.11 in2.8 mm
01:55 PM 51.1°F10.6°C 48.2°F9.0°C 86% 5.8 mph W9.3 kmh W 9.6 mph15.4 kmh 29.36 in994.2 mb 0.00 in0.0 mm 0.00 in0.0 mm 0.11 in2.8 mm
02:00 PM 51.3°F10.7°C 48.2°F9.0°C 86% 5.5 mph WSW8.9 kmh WSW 7.4 mph11.9 kmh 29.36 in994.2 mb 0.00 in0.0 mm 0.00 in0.0 mm 0.11 in2.8 mm
02:05 PM 51.3°F10.7°C 48.2°F9.0°C 86% 5.9 mph W9.5 kmh W 7.6 mph12.2 kmh 29.36 in994.2 mb 0.00 in0.0 mm 0.00 in0.0 mm 0.11 in2.8 mm
02:10 PM 51.4°F10.8°C 48.2°F9.0°C 85% 6.4 mph W10.3 kmh W 8.7 mph14.0 kmh 29.36 in994.2 mb 0.00 in0.0 mm 0.00 in0.0 mm 0.11 in2.8 mm
02:15 PM 51.6°F10.9°C 48.2°F9.0°C 85% 6.2 mph W10.0 kmh W 10.5 mph16.9 kmh 29.36 in994.2 mb 0.00 in0.0 mm 0.00 in0.0 mm 0.11 in2.8 mm
02:20 PM 51.8°F11.0°C 48.2°F9.0°C 85% 5.5 mph WNW8.9 kmh WNW 10.5 mph16.9 kmh 29.36 in994.2 mb 0.00 in0.0 mm 0.00 in0.0 mm 0.11 in2.8 mm
02:25 PM 51.8°F11.0°C 48.2°F9.0°C 84% 5.9 mph W9.5 kmh W 9.6 mph15.4 kmh 29.36 in994.2 mb 0.00 in0.0 mm 0.00 in0.0 mm 0.11 in2.8 mm
02:30 PM 51.8°F11.0°C 48.2°F9.0°C 84% 6.4 mph WSW10.3 kmh WSW 9.6 mph15.4 kmh 29.36 in994.2 mb 0.00 in0.0 mm 0.00 in0.0 mm 0.11 in2.8 mm
02:35 PM 52.0°F11.1°C 48.2°F9.0°C 84% 5.5 mph W8.9 kmh W 7.8 mph12.6 kmh 29.36 in994.2 mb 0.00 in0.0 mm 0.00 in0.0 mm 0.11 in2.8 mm
02:40 PM 52.0°F11.1°C 48.2°F9.0°C 84% 4.3 mph W6.9 kmh W 6.5 mph10.5 kmh 29.36 in994.2 mb 0.00 in0.0 mm 0.00 in0.0 mm 0.11 in2.8 mm
02:45 PM 52.0°F11.1°C 48.2°F9.0°C 84% 4.5 mph WSW7.2 kmh WSW 7.8 mph12.6 kmh 29.36 in994.2 mb 0.00 in0.0 mm 0.00 in0.0 mm 0.11 in2.8 mm
02:50 PM 51.8°F11.0°C 48.2°F9.0°C 84% 5.2 mph WSW8.4 kmh WSW 7.8 mph12.6 kmh 29.36 in994.2 mb 0.00 in0.0 mm 0.00 in0.0 mm 0.11 in2.8 mm
02:55 PM 51.6°F10.9°C 46.4°F8.0°C 83% 6.7 mph WSW10.8 kmh WSW 10.1 mph16.3 kmh 29.36 in994.2 mb 0.00 in0.0 mm 0.00 in0.0 mm 0.11 in2.8 mm
03:00 PM 51.3°F10.7°C 46.4°F8.0°C 83% 7.4 mph WSW11.9 kmh WSW 10.1 mph16.3 kmh 29.36 in994.2 mb 0.00 in0.0 mm 0.00 in0.0 mm 0.11 in2.8 mm
03:05 PM 51.1°F10.6°C 46.4°F8.0°C 83% 5.5 mph W8.9 kmh W 8.5 mph13.7 kmh 29.39 in995.3 mb 0.00 in0.0 mm 0.00 in0.0 mm 0.11 in2.8 mm
03:10 PM 51.1°F10.6°C 46.4°F8.0°C 83% 4.0 mph WSW6.4 kmh WSW 7.6 mph12.2 kmh 29.39 in995.3 mb 0.00 in0.0 mm 0.00 in0.0 mm 0.11 in2.8 mm
03:15 PM 51.1°F10.6°C 46.4°F8.0°C 83% 4.5 mph WSW7.2 kmh WSW 7.2 mph11.6 kmh 29.39 in995.3 mb 0.00 in0.0 mm 0.00 in0.0 mm 0.11 in2.8 mm
03:20 PM 51.1°F10.6°C 46.4°F8.0°C 83% 4.4 mph WSW7.1 kmh WSW 7.2 mph11.6 kmh 29.41 in995.9 mb 0.00 in0.0 mm 0.00 in0.0 mm 0.11 in2.8 mm
03:25 PM 51.3°F10.7°C 46.4°F8.0°C 83% 3.8 mph WSW6.1 kmh WSW 7.6 mph12.2 kmh 29.41 in995.9 mb 0.00 in0.0 mm 0.00 in0.0 mm 0.11 in2.8 mm
03:30 PM 51.3°F10.7°C 46.4°F8.0°C 83% 3.4 mph WSW5.5 kmh WSW 7.6 mph12.2 kmh 29.41 in995.9 mb 0.00 in0.0 mm 0.00 in0.0 mm 0.11 in2.8 mm
03:35 PM 51.3°F10.7°C 46.4°F8.0°C 83% 3.1 mph WSW5.0 kmh WSW 7.4 mph11.9 kmh 29.41 in995.9 mb 0.00 in0.0 mm 0.00 in0.0 mm 0.11 in2.8 mm
03:40 PM 51.1°F10.6°C 46.4°F8.0°C 83% 4.1 mph WSW6.6 kmh WSW 7.4 mph11.9 kmh 29.41 in995.9 mb 0.00 in0.0 mm 0.00 in0.0 mm 0.11 in2.8 mm
03:45 PM 50.9°F10.5°C 46.4°F8.0°C 82% 5.0 mph WSW8.0 kmh WSW 8.5 mph13.7 kmh 29.41 in995.9 mb 0.00 in0.0 mm 0.00 in0.0 mm 0.11 in2.8 mm
03:50 PM 50.9°F10.5°C 46.4°F8.0°C 83% 5.7 mph WSW9.2 kmh WSW 8.7 mph14.0 kmh 29.41 in995.9 mb 0.00 in0.0 mm 0.00 in0.0 mm 0.11 in2.8 mm
03:55 PM 50.7°F10.4°C 46.4°F8.0°C 82% 6.4 mph WSW10.3 kmh WSW 10.1 mph16.3 kmh 29.41 in995.9 mb 0.00 in0.0 mm 0.00 in0.0 mm 0.11 in2.8 mm
04:00 PM 50.7°F10.4°C 46.4°F8.0°C 82% 6.0 mph W9.7 kmh W 10.1 mph16.3 kmh 29.41 in995.9 mb 0.00 in0.0 mm 0.00 in0.0 mm 0.11 in2.8 mm
04:05 PM 50.5°F10.3°C 46.4°F8.0°C 82% 5.6 mph WSW9.0 kmh WSW 8.1 mph13.0 kmh 29.41 in995.9 mb 0.00 in0.0 mm 0.00 in0.0 mm 0.11 in2.8 mm
04:10 PM 50.5°F10.3°C 46.4°F8.0°C 82% 4.7 mph WSW7.6 kmh WSW 8.1 mph13.0 kmh 29.41 in995.9 mb 0.00 in0.0 mm 0.00 in0.0 mm 0.11 in2.8 mm
04:15 PM 50.4°F10.2°C 46.4°F8.0°C 82% 4.4 mph WSW7.1 kmh WSW 6.3 mph10.1 kmh 29.41 in995.9 mb 0.00 in0.0 mm 0.00 in0.0 mm 0.11 in2.8 mm
04:20 PM 50.2°F10.1°C 44.6°F7.0°C 82% 4.8 mph WSW7.7 kmh WSW 6.3 mph10.1 kmh 29.41 in995.9 mb 0.00 in0.0 mm 0.00 in0.0 mm 0.11 in2.8 mm
04:25 PM 50.0°F10.0°C 44.6°F7.0°C 82% 4.6 mph WSW7.4 kmh WSW 6.0 mph9.7 kmh 29.41 in995.9 mb 0.00 in0.0 mm 0.00 in0.0 mm 0.11 in2.8 mm
04:30 PM 49.8°F9.9°C 44.6°F7.0°C 82% 4.5 mph WSW7.2 kmh WSW 6.0 mph9.7 kmh 29.41 in995.9 mb 0.00 in0.0 mm 0.00 in0.0 mm 0.11 in2.8 mm
04:35 PM 49.8°F9.9°C 44.6°F7.0°C 82% 4.7 mph WSW7.6 kmh WSW 6.0 mph9.7 kmh 29.41 in995.9 mb 0.00 in0.0 mm 0.00 in0.0 mm 0.11 in2.8 mm
04:40 PM 49.5°F9.7°C 44.6°F7.0°C 82% 3.9 mph WSW6.3 kmh WSW 5.8 mph9.3 kmh 29.41 in995.9 mb 0.00 in0.0 mm 0.00 in0.0 mm 0.11 in2.8 mm
04:45 PM 49.5°F9.7°C 44.6°F7.0°C 82% 3.5 mph WSW5.6 kmh WSW 7.2 mph11.6 kmh 29.41 in995.9 mb 0.00 in0.0 mm 0.00 in0.0 mm 0.11 in2.8 mm
04:50 PM 49.3°F9.6°C 44.6°F7.0°C 82% 3.5 mph WSW5.6 kmh WSW 7.2 mph11.6 kmh 29.45 in997.3 mb 0.00 in0.0 mm 0.00 in0.0 mm 0.11 in2.8 mm
04:55 PM 49.1°F9.5°C 44.6°F7.0°C 82% 3.0 mph WSW4.8 kmh WSW 4.3 mph6.9 kmh 29.45 in997.3 mb 0.00 in0.0 mm 0.00 in0.0 mm 0.11 in2.8 mm
05:00 PM 49.1°F9.5°C 44.6°F7.0°C 82% 3.8 mph WSW6.1 kmh WSW 6.0 mph9.7 kmh 29.45 in997.3 mb 0.00 in0.0 mm 0.00 in0.0 mm 0.11 in2.8 mm
05:05 PM 48.9°F9.4°C 44.6°F7.0°C 82% 3.7 mph WSW6.0 kmh WSW 6.3 mph10.1 kmh 29.45 in997.3 mb 0.00 in0.0 mm 0.00 in0.0 mm 0.11 in2.8 mm
05:10 PM 48.9°F9.4°C 44.6°F7.0°C 82% 3.0 mph WSW4.8 kmh WSW 6.3 mph10.1 kmh 29.45 in997.3 mb 0.00 in0.0 mm 0.00 in0.0 mm 0.11 in2.8 mm
05:15 PM 48.9°F9.4°C 44.6°F7.0°C 82% 4.6 mph WSW7.4 kmh WSW 7.8 mph12.6 kmh 29.45 in997.3 mb 0.00 in0.0 mm 0.00 in0.0 mm 0.11 in2.8 mm
05:20 PM 48.7°F9.3°C 44.6°F7.0°C 82% 5.0 mph WSW8.0 kmh WSW 7.8 mph12.6 kmh 29.45 in997.3 mb 0.00 in0.0 mm 0.00 in0.0 mm 0.11 in2.8 mm
05:25 PM 48.6°F9.2°C 44.6°F7.0°C 82% 3.6 mph WSW5.8 kmh WSW 5.8 mph9.3 kmh 29.45 in997.3 mb 0.00 in0.0 mm 0.00 in0.0 mm 0.11 in2.8 mm
05:30 PM 48.4°F9.1°C 42.8°F6.0°C 82% 2.8 mph W4.5 kmh W 4.5 mph7.2 kmh 29.45 in997.3 mb 0.00 in0.0 mm 0.00 in0.0 mm 0.11 in2.8 mm
05:35 PM 48.2°F9.0°C 42.8°F6.0°C 82% 1.5 mph WSW2.4 kmh WSW 3.1 mph5.0 kmh 29.41 in995.9 mb 0.00 in0.0 mm 0.00 in0.0 mm 0.11 in2.8 mm
05:40 PM 48.0°F8.9°C 42.8°F6.0°C 82% 0.6 mph SW1.0 kmh SW 2.5 mph4.0 kmh 29.41 in995.9 mb 0.00 in0.0 mm 0.00 in0.0 mm 0.11 in2.8 mm
05:45 PM 47.7°F8.7°C 42.8°F6.0°C 82% 0.4 mph WSW0.6 kmh WSW 2.0 mph3.2 kmh 29.41 in995.9 mb 0.00 in0.0 mm 0.00 in0.0 mm 0.11 in2.8 mm
05:50 PM 47.7°F8.7°C 42.8°F6.0°C 83% 0.3 mph SW0.5 kmh SW 2.0 mph3.2 kmh 29.45 in997.3 mb 0.00 in0.0 mm 0.00 in0.0 mm 0.11 in2.8 mm
05:55 PM 47.3°F8.5°C 42.8°F6.0°C 83% 0.5 mph SSE0.8 kmh SSE 2.2 mph3.5 kmh 29.45 in997.3 mb 0.00 in0.0 mm 0.00 in0.0 mm 0.11 in2.8 mm
06:00 PM 46.9°F8.3°C 42.8°F6.0°C 82% 0.4 mph E0.6 kmh E 2.2 mph3.5 kmh 29.45 in997.3 mb 0.00 in0.0 mm 0.00 in0.0 mm 0.11 in2.8 mm
06:05 PM 46.9°F8.3°C 42.8°F6.0°C 83% 0.4 mph SE0.6 kmh SE 2.2 mph3.5 kmh 29.45 in997.3 mb 0.00 in0.0 mm 0.00 in0.0 mm 0.11 in2.8 mm
06:10 PM 46.8°F8.2°C 42.8°F6.0°C 83% 0.4 mph S0.6 kmh S 1.6 mph2.6 kmh 29.45 in997.3 mb 0.00 in0.0 mm 0.00 in0.0 mm 0.11 in2.8 mm
06:15 PM 46.9°F8.3°C 42.8°F6.0°C 83% 0.6 mph S1.0 kmh S 1.6 mph2.6 kmh 29.45 in997.3 mb 0.00 in0.0 mm 0.00 in0.0 mm 0.11 in2.8 mm
06:20 PM 46.8°F8.2°C 42.8°F6.0°C 83% 0.8 mph S1.3 kmh S 1.3 mph2.1 kmh 29.45 in997.3 mb 0.00 in0.0 mm 0.00 in0.0 mm 0.11 in2.8 mm
06:25 PM 46.8°F8.2°C 42.8°F6.0°C 83% 0.6 mph SSW1.0 kmh SSW 1.3 mph2.1 kmh 29.45 in997.3 mb 0.00 in0.0 mm 0.00 in0.0 mm 0.11 in2.8 mm
06:30 PM 46.9°F8.3°C 42.8°F6.0°C 83% 0.9 mph S1.4 kmh S 1.3 mph2.1 kmh 29.45 in997.3 mb 0.00 in0.0 mm 0.00 in0.0 mm 0.11 in2.8 mm
06:35 PM 46.8°F8.2°C 42.8°F6.0°C 83% 1.5 mph SSW2.4 kmh SSW 4.0 mph6.4 kmh 29.45 in997.3 mb 0.00 in0.0 mm 0.00 in0.0 mm 0.11 in2.8 mm
06:40 PM 46.8°F8.2°C 42.8°F6.0°C 83% 1.7 mph SSW2.7 kmh SSW 4.0 mph6.4 kmh 29.45 in997.3 mb 0.00 in0.0 mm 0.00 in0.0 mm 0.11 in2.8 mm
06:45 PM 46.4°F8.0°C 42.8°F6.0°C 83% 1.6 mph SSW2.6 kmh SSW 3.6 mph5.8 kmh 29.45 in997.3 mb 0.00 in0.0 mm 0.00 in0.0 mm 0.11 in2.8 mm
06:50 PM 46.0°F7.8°C 41.0°F5.0°C 83% 1.7 mph WSW2.7 kmh WSW 3.6 mph5.8 kmh 29.45 in997.3 mb 0.00 in0.0 mm 0.00 in0.0 mm 0.11 in2.8 mm
06:55 PM 46.0°F7.8°C 41.0°F5.0°C 83% 1.2 mph WSW1.9 kmh WSW 3.1 mph5.0 kmh 29.45 in997.3 mb 0.00 in0.0 mm 0.00 in0.0 mm 0.11 in2.8 mm
07:00 PM 46.0°F7.8°C 41.0°F5.0°C 83% 0.9 mph SW1.4 kmh SW 2.0 mph3.2 kmh 29.45 in997.3 mb 0.00 in0.0 mm 0.00 in0.0 mm 0.11 in2.8 mm
07:05 PM 46.0°F7.8°C 41.0°F5.0°C 83% 0.7 mph SSW1.1 kmh SSW 1.6 mph2.6 kmh 29.45 in997.3 mb 0.00 in0.0 mm 0.00 in0.0 mm 0.11 in2.8 mm
07:10 PM 46.0°F7.8°C 41.0°F5.0°C 83% 0.7 mph S1.1 kmh S 2.5 mph4.0 kmh 29.45 in997.3 mb 0.00 in0.0 mm 0.00 in0.0 mm 0.11 in2.8 mm
07:15 PM 46.0°F7.8°C 41.0°F5.0°C 84% 1.3 mph S2.1 kmh S 2.7 mph4.3 kmh 29.45 in997.3 mb 0.00 in0.0 mm 0.00 in0.0 mm 0.11 in2.8 mm
07:20 PM 46.0°F7.8°C 41.0°F5.0°C 84% 2.2 mph S3.5 kmh S 4.3 mph6.9 kmh 29.41 in995.9 mb 0.00 in0.0 mm 0.00 in0.0 mm 0.11 in2.8 mm
07:25 PM 46.0°F7.8°C 41.0°F5.0°C 84% 2.5 mph S4.0 kmh S 4.9 mph7.9 kmh 29.41 in995.9 mb 0.00 in0.0 mm 0.00 in0.0 mm 0.11 in2.8 mm
07:30 PM 46.0°F7.8°C 41.0°F5.0°C 84% 2.7 mph S4.3 kmh S 4.9 mph7.9 kmh 29.41 in995.9 mb 0.00 in0.0 mm 0.00 in0.0 mm 0.11 in2.8 mm
07:35 PM 46.0°F7.8°C 41.0°F5.0°C 84% 3.3 mph S5.3 kmh S 5.8 mph9.3 kmh 29.41 in995.9 mb 0.00 in0.0 mm 0.00 in0.0 mm 0.11 in2.8 mm
07:40 PM 46.0°F7.8°C 41.0°F5.0°C 84% 2.7 mph S4.3 kmh S 5.8 mph9.3 kmh 29.41 in995.9 mb 0.00 in0.0 mm 0.00 in0.0 mm 0.11 in2.8 mm
07:45 PM 46.2°F7.9°C 42.8°F6.0°C 84% 2.1 mph S3.4 kmh S 3.4 mph5.5 kmh 29.41 in995.9 mb 0.00 in0.0 mm 0.00 in0.0 mm 0.11 in2.8 mm
07:50 PM 46.2°F7.9°C 42.8°F6.0°C 84% 1.9 mph S3.1 kmh S 3.1 mph5.0 kmh 29.41 in995.9 mb 0.00 in0.0 mm 0.00 in0.0 mm 0.11 in2.8 mm
07:55 PM 46.2°F7.9°C 42.8°F6.0°C 84% 1.2 mph SSE1.9 kmh SSE 2.9 mph4.7 kmh 29.41 in995.9 mb 0.00 in0.0 mm 0.00 in0.0 mm 0.11 in2.8 mm
08:00 PM 46.2°F7.9°C 42.8°F6.0°C 84% 0.7 mph SSE1.1 kmh SSE 2.0 mph3.2 kmh 29.41 in995.9 mb 0.00 in0.0 mm 0.00 in0.0 mm 0.11 in2.8 mm
08:05 PM 46.2°F7.9°C 42.8°F6.0°C 84% 0.4 mph SSE0.6 kmh SSE 1.6 mph2.6 kmh 29.41 in995.9 mb 0.00 in0.0 mm 0.00 in0.0 mm 0.11 in2.8 mm
08:10 PM 46.2°F7.9°C 42.8°F6.0°C 84% 0.1 mph SSE0.2 kmh SSE 0.9 mph1.4 kmh 29.41 in995.9 mb 0.00 in0.0 mm 0.00 in0.0 mm 0.11 in2.8 mm
08:15 PM 46.0°F7.8°C 41.0°F5.0°C 84% 0.1 mph SE0.2 kmh SE 1.1 mph1.8 kmh 29.41 in995.9 mb 0.00 in0.0 mm 0.00 in0.0 mm 0.11 in2.8 mm
08:20 PM 46.0°F7.8°C 41.0°F5.0°C 84% 0.2 mph SE0.3 kmh SE 1.1 mph1.8 kmh 29.41 in995.9 mb 0.00 in0.0 mm 0.00 in0.0 mm 0.11 in2.8 mm
08:25 PM 46.0°F7.8°C 41.0°F5.0°C 84% 1.0 mph S1.6 kmh S 2.7 mph4.3 kmh 29.41 in995.9 mb 0.00 in0.0 mm 0.00 in0.0 mm 0.11 in2.8 mm
08:30 PM 46.2°F7.9°C 42.8°F6.0°C 84% 1.6 mph S2.6 kmh S 2.7 mph4.3 kmh 29.41 in995.9 mb 0.00 in0.0 mm 0.00 in0.0 mm 0.11 in2.8 mm
08:35 PM 46.2°F7.9°C 42.8°F6.0°C 84% 1.2 mph S1.9 kmh S 2.2 mph3.5 kmh 29.41 in995.9 mb 0.00 in0.0 mm 0.00 in0.0 mm 0.11 in2.8 mm
08:40 PM 46.2°F7.9°C 42.8°F6.0°C 84% 1.4 mph S2.3 kmh S 2.5 mph4.0 kmh 29.41 in995.9 mb 0.00 in0.0 mm 0.00 in0.0 mm 0.11 in2.8 mm
08:45 PM 46.4°F8.0°C 42.8°F6.0°C 84% 1.8 mph S2.9 kmh S 2.5 mph4.0 kmh 29.41 in995.9 mb 0.00 in0.0 mm 0.00 in0.0 mm 0.11 in2.8 mm
08:50 PM 46.4°F8.0°C 42.8°F6.0°C 84% 2.4 mph SW3.9 kmh SW 5.6 mph9.0 kmh 29.41 in995.9 mb 0.00 in0.0 mm 0.00 in0.0 mm 0.11 in2.8 mm
08:55 PM 46.6°F8.1°C 42.8°F6.0°C 84% 3.2 mph WSW5.1 kmh WSW 6.0 mph9.7 kmh 29.41 in995.9 mb 0.00 in0.0 mm 0.00 in0.0 mm 0.11 in2.8 mm
09:00 PM 46.8°F8.2°C 42.8°F6.0°C 84% 4.3 mph WSW6.9 kmh WSW 7.8 mph12.6 kmh 29.41 in995.9 mb 0.00 in0.0 mm 0.00 in0.0 mm 0.11 in2.8 mm
09:05 PM 47.1°F8.4°C 42.8°F6.0°C 84% 5.6 mph WSW9.0 kmh WSW 8.7 mph14.0 kmh 29.41 in995.9 mb 0.00 in0.0 mm 0.00 in0.0 mm 0.11 in2.8 mm
09:10 PM 47.3°F8.5°C 42.8°F6.0°C 84% 6.2 mph WSW10.0 kmh WSW 8.7 mph14.0 kmh 29.41 in995.9 mb 0.00 in0.0 mm 0.00 in0.0 mm 0.11 in2.8 mm
09:15 PM 47.5°F8.6°C 42.8°F6.0°C 84% 5.9 mph WSW9.5 kmh WSW 8.7 mph14.0 kmh 29.41 in995.9 mb 0.00 in0.0 mm 0.00 in0.0 mm 0.11 in2.8 mm
09:20 PM 47.5°F8.6°C 42.8°F6.0°C 84% 5.7 mph WSW9.2 kmh WSW 8.5 mph13.7 kmh 29.41 in995.9 mb 0.00 in0.0 mm 0.00 in0.0 mm 0.11 in2.8 mm
09:25 PM 47.7°F8.7°C 42.8°F6.0°C 84% 6.5 mph WSW10.5 kmh WSW 12.8 mph20.6 kmh 29.41 in995.9 mb 0.00 in0.0 mm 0.00 in0.0 mm 0.11 in2.8 mm
09:30 PM 47.7°F8.7°C 42.8°F6.0°C 84% 5.4 mph WSW8.7 kmh WSW 12.8 mph20.6 kmh 29.41 in995.9 mb 0.00 in0.0 mm 0.00 in0.0 mm 0.11 in2.8 mm
09:35 PM 47.7°F8.7°C 42.8°F6.0°C 84% 4.1 mph W6.6 kmh W 6.0 mph9.7 kmh 29.41 in995.9 mb 0.00 in0.0 mm 0.00 in0.0 mm 0.11 in2.8 mm
09:40 PM 47.7°F8.7°C 42.8°F6.0°C 84% 5.6 mph WSW9.0 kmh WSW 8.5 mph13.7 kmh 29.41 in995.9 mb 0.00 in0.0 mm 0.00 in0.0 mm 0.11 in2.8 mm
09:45 PM 47.7°F8.7°C 42.8°F6.0°C 84% 6.0 mph WSW9.7 kmh WSW 8.5 mph13.7 kmh 29.41 in995.9 mb 0.00 in0.0 mm 0.00 in0.0 mm 0.11 in2.8 mm
09:50 PM 47.8°F8.8°C 44.6°F7.0°C 84% 6.1 mph WSW9.8 kmh WSW 9.2 mph14.8 kmh 29.36 in994.2 mb 0.00 in0.0 mm 0.00 in0.0 mm 0.11 in2.8 mm
09:55 PM 47.8°F8.8°C 44.6°F7.0°C 84% 7.3 mph WSW11.7 kmh WSW 14.8 mph23.8 kmh 29.36 in994.2 mb 0.00 in0.0 mm 0.00 in0.0 mm 0.11 in2.8 mm
10:00 PM 47.8°F8.8°C 44.6°F7.0°C 84% 7.9 mph WSW12.7 kmh WSW 14.8 mph23.8 kmh 29.36 in994.2 mb 0.00 in0.0 mm 0.00 in0.0 mm 0.11 in2.8 mm
10:05 PM 48.0°F8.9°C 44.6°F7.0°C 84% 8.7 mph WSW14.0 kmh WSW 14.8 mph23.8 kmh 29.39 in995.3 mb 0.00 in0.0 mm 0.00 in0.0 mm 0.11 in2.8 mm
10:10 PM 48.0°F8.9°C 44.6°F7.0°C 84% 8.1 mph WSW13.0 kmh WSW 11.4 mph18.3 kmh 29.39 in995.3 mb 0.00 in0.0 mm 0.00 in0.0 mm 0.11 in2.8 mm
10:15 PM 47.8°F8.8°C 44.6°F7.0°C 84% 6.7 mph WSW10.8 kmh WSW 10.3 mph16.6 kmh 29.39 in995.3 mb 0.00 in0.0 mm 0.00 in0.0 mm 0.11 in2.8 mm
10:20 PM 47.8°F8.8°C 44.6°F7.0°C 84% 6.3 mph WSW10.1 kmh WSW 10.1 mph16.3 kmh 29.39 in995.3 mb 0.00 in0.0 mm 0.00 in0.0 mm 0.11 in2.8 mm
10:25 PM 47.8°F8.8°C 44.6°F7.0°C 84% 6.6 mph W10.6 kmh W 10.5 mph16.9 kmh 29.39 in995.3 mb 0.00 in0.0 mm 0.00 in0.0 mm 0.11 in2.8 mm
10:30 PM 48.0°F8.9°C 44.6°F7.0°C 84% 8.6 mph WSW13.8 kmh WSW 12.8 mph20.6 kmh 29.39 in995.3 mb 0.00 in0.0 mm 0.00 in0.0 mm 0.11 in2.8 mm
10:35 PM 48.2°F9.0°C 44.6°F7.0°C 84% 10.0 mph WSW16.1 kmh WSW 13.2 mph21.2 kmh 29.39 in995.3 mb 0.00 in0.0 mm 0.00 in0.0 mm 0.11 in2.8 mm
10:40 PM 48.2°F9.0°C 42.8°F6.0°C 83% 9.6 mph WSW15.4 kmh WSW 13.2 mph21.2 kmh 29.39 in995.3 mb 0.00 in0.0 mm 0.00 in0.0 mm 0.11 in2.8 mm
10:45 PM 48.2°F9.0°C 42.8°F6.0°C 83% 10.3 mph WSW16.6 kmh WSW 14.8 mph23.8 kmh 29.39 in995.3 mb 0.00 in0.0 mm 0.00 in0.0 mm 0.11 in2.8 mm
10:50 PM 48.0°F8.9°C 42.8°F6.0°C 83% 9.9 mph WSW15.9 kmh WSW 14.8 mph23.8 kmh 29.39 in995.3 mb 0.00 in0.0 mm 0.00 in0.0 mm 0.11 in2.8 mm
10:55 PM 48.0°F8.9°C 42.8°F6.0°C 83% 9.6 mph WSW15.4 kmh WSW 12.5 mph20.1 kmh 29.39 in995.3 mb 0.00 in0.0 mm 0.00 in0.0 mm 0.11 in2.8 mm
11:00 PM 48.0°F8.9°C 42.8°F6.0°C 83% 10.5 mph WSW16.9 kmh WSW 15.2 mph24.5 kmh 29.39 in995.3 mb 0.00 in0.0 mm 0.00 in0.0 mm 0.11 in2.8 mm
11:05 PM 48.2°F9.0°C 42.8°F6.0°C 83% 10.2 mph WSW16.4 kmh WSW 15.4 mph24.8 kmh 29.39 in995.3 mb 0.00 in0.0 mm 0.00 in0.0 mm 0.11 in2.8 mm
11:10 PM 48.2°F9.0°C 42.8°F6.0°C 83% 9.4 mph WSW15.1 kmh WSW 15.4 mph24.8 kmh 29.39 in995.3 mb 0.00 in0.0 mm 0.00 in0.0 mm 0.11 in2.8 mm
11:15 PM 48.0°F8.9°C 42.8°F6.0°C 83% 8.5 mph WSW13.7 kmh WSW 11.9 mph19.2 kmh 29.39 in995.3 mb 0.00 in0.0 mm 0.00 in0.0 mm 0.11 in2.8 mm
11:20 PM 48.2°F9.0°C 42.8°F6.0°C 83% 8.7 mph WSW14.0 kmh WSW 13.4 mph21.6 kmh 29.39 in995.3 mb 0.00 in0.0 mm 0.00 in0.0 mm 0.11 in2.8 mm
11:25 PM 48.2°F9.0°C 42.8°F6.0°C 83% 9.9 mph WSW15.9 kmh WSW 13.4 mph21.6 kmh 29.39 in995.3 mb 0.00 in0.0 mm 0.00 in0.0 mm 0.11 in2.8 mm
11:30 PM 48.2°F9.0°C 42.8°F6.0°C 83% 10.6 mph WSW17.1 kmh WSW 13.0 mph20.9 kmh 29.39 in995.3 mb 0.00 in0.0 mm 0.00 in0.0 mm 0.11 in2.8 mm
11:35 PM 48.2°F9.0°C 42.8°F6.0°C 83% 9.8 mph WSW15.8 kmh WSW 13.0 mph20.9 kmh 29.39 in995.3 mb 0.00 in0.0 mm 0.00 in0.0 mm 0.11 in2.8 mm
11:40 PM 48.4°F9.1°C 42.8°F6.0°C 83% 9.4 mph WSW15.1 kmh WSW 12.5 mph20.1 kmh 29.39 in995.3 mb 0.00 in0.0 mm 0.00 in0.0 mm 0.11 in2.8 mm
11:45 PM 48.4°F9.1°C 42.8°F6.0°C 82% 11.2 mph WSW18.0 kmh WSW 15.9 mph25.6 kmh 29.39 in995.3 mb 0.00 in0.0 mm 0.00 in0.0 mm 0.11 in2.8 mm
11:50 PM 48.6°F9.2°C 44.6°F7.0°C 82% 11.4 mph WSW18.3 kmh WSW 15.9 mph25.6 kmh 29.39 in995.3 mb 0.00 in0.0 mm 0.00 in0.0 mm 0.11 in2.8 mm
11:55 PM 48.6°F9.2°C 42.8°F6.0°C 81% 10.2 mph WSW16.4 kmh WSW 14.3 mph23.0 kmh 29.39 in995.3 mb 0.00 in0.0 mm 0.00 in0.0 mm 0.11 in2.8 mm